Time;durP1;ratioP1;P1;durP2;ratioP2;P2;SDS_P1;SDS_P2;PMS_P1;PMS_P2;Temp;Humidity;BMP_temperature;BMP_pressure;BME280_temperature;BME280_humidity;BME280_pressure;Samples;Min_cycle;Max_cycle;Signal;HPM_P1;HPM_P2
2023/10/16 00:02:12;;;;;;;5.88;2.53;;;;;;;;;;5050301;28;20048;-69
2023/10/16 00:04:43;;;;;;;10.80;3.60;;;;;;;;;;5050219;28;20033;-70
2023/10/16 00:07:09;;;;;;;9.52;3.03;;;;;;;;;;5050585;28;20025;-69
2023/10/16 00:09:34;;;;;;;7.75;3.08;;;;;;;;;;5043718;28;20051;-70
2023/10/16 00:11:59;;;;;;;8.70;3.05;;;;;;;;;;5047267;28;20017;-69
2023/10/16 00:14:26;;;;;;;6.85;2.65;;;;;;;;;;5049313;28;20024;-69
2023/10/16 00:16:51;;;;;;;9.05;2.97;;;;;;;;;;5032188;28;20025;-72
2023/10/16 00:19:16;;;;;;;6.80;3.20;;;;;;;;;;5050105;28;20025;-70
2023/10/16 00:21:45;;;;;;;7.25;3.10;;;;;;;;;;5049941;28;20279;-70
2023/10/16 00:24:11;;;;;;;9.50;2.95;;;;;;;;;;5040491;28;20047;-70
2023/10/16 00:26:38;;;;;;;5.15;3.03;;;;;;;;;;5047367;28;20056;-69
2023/10/16 00:31:51;;;;;;;4.68;2.65;;;;;;;;;;5048192;28;20098;-69
2023/10/16 00:34:22;;;;;;;8.23;3.45;;;;;;;;;;5049828;28;20012;-69
2023/10/16 00:36:49;;;;;;;9.45;3.50;;;;;;;;;;5050214;28;20016;-70
2023/10/16 00:39:15;;;;;;;7.60;3.00;;;;;;;;;;5047759;28;20070;-69
2023/10/16 00:41:42;;;;;;;8.20;3.03;;;;;;;;;;5048662;28;20432;-69
2023/10/16 00:44:07;;;;;;;7.95;2.92;;;;;;;;;;5049837;28;20013;-69
2023/10/16 00:46:44;;;;;;;7.00;3.08;;;;;;;;;;5048754;28;20021;-69
2023/10/16 00:49:12;;;;;;;4.95;2.88;;;;;;;;;;5048288;28;20017;-69
2023/10/16 00:51:41;;;;;;;11.38;3.38;;;;;;;;;;5048860;28;20052;-70
2023/10/16 00:54:17;;;;;;;7.20;3.33;;;;;;;;;;5046228;28;20504;-69
2023/10/16 00:56:43;;;;;;;9.50;3.13;;;;;;;;;;5046727;28;20480;-69
2023/10/16 00:59:10;;;;;;;6.95;3.25;;;;;;;;;;5047433;28;20013;-70
2023/10/16 01:01:43;;;;;;;5.90;3.03;;;;;;;;;;5046515;28;20021;-70
2023/10/16 01:04:09;;;;;;;9.60;3.20;;;;;;;;;;5049474;28;20393;-69
2023/10/16 01:06:37;;;;;;;12.27;3.20;;;;;;;;;;5048158;28;20021;-69
2023/10/16 01:09:09;;;;;;;8.48;3.25;;;;;;;;;;5047507;28;20096;-69
2023/10/16 01:11:38;;;;;;;5.07;2.55;;;;;;;;;;5049253;28;20021;-72
2023/10/16 01:14:03;;;;;;;10.65;3.55;;;;;;;;;;5048809;28;20021;-69
2023/10/16 01:16:29;;;;;;;21.42;3.72;;;;;;;;;;5031444;28;20024;-69
2023/10/16 01:18:57;;;;;;;8.95;3.47;;;;;;;;;;5048901;28;20021;-70
2023/10/16 01:21:22;;;;;;;6.63;2.85;;;;;;;;;;5044926;28;20029;-69
2023/10/16 01:23:47;;;;;;;12.23;3.60;;;;;;;;;;5048910;28;20036;-69
2023/10/16 01:26:13;;;;;;;9.10;3.20;;;;;;;;;;5053317;28;20260;-69
2023/10/16 01:28:39;;;;;;;5.70;3.10;;;;;;;;;;5051699;28;20104;-69
2023/10/16 01:31:04;;;;;;;8.98;3.30;;;;;;;;;;5052226;28;20143;-69
2023/10/16 01:33:30;;;;;;;7.30;3.30;;;;;;;;;;5049843;28;20384;-69
2023/10/16 01:35:56;;;;;;;13.68;3.40;;;;;;;;;;5051118;28;20009;-69
2023/10/16 01:38:24;;;;;;;7.63;3.30;;;;;;;;;;5053592;28;20025;-70
2023/10/16 01:41:05;;;;;;;8.63;3.38;;;;;;;;;;5052439;28;20451;-69
2023/10/16 01:43:30;;;;;;;12.35;3.40;;;;;;;;;;5053029;28;20052;-69
2023/10/16 01:46:00;;;;;;;7.60;3.90;;;;;;;;;;5047756;28;20107;-69
2023/10/16 01:48:28;;;;;;;10.35;4.32;;;;;;;;;;5045598;28;20074;-69
2023/10/16 01:50:54;;;;;;;19.80;3.67;;;;;;;;;;5049053;28;20036;-70
2023/10/16 01:53:25;;;;;;;10.23;3.53;;;;;;;;;;5032903;28;20412;-69
2023/10/16 01:55:51;;;;;;;9.15;3.70;;;;;;;;;;5051553;28;20100;-69
2023/10/16 01:58:21;;;;;;;14.27;3.35;;;;;;;;;;5053054;28;20056;-69
2023/10/16 02:00:46;;;;;;;;;;;;;;;;;;5052785;28;20017;-69
2023/10/16 02:03:12;;;;;;;14.32;3.78;;;;;;;;;;5052556;28;19916;-69
2023/10/16 02:05:41;;;;;;;9.40;3.53;;;;;;;;;;5044814;28;20052;-69
2023/10/16 02:08:07;;;;;;;10.70;4.15;;;;;;;;;;5036613;28;20051;-69
2023/10/16 02:10:32;;;;;;;12.32;3.75;;;;;;;;;;5041677;28;20025;-69
2023/10/16 02:12:58;;;;;;;14.70;4.88;;;;;;;;;;5034499;28;20064;-70
2023/10/16 02:15:23;;;;;;;9.90;4.85;;;;;;;;;;5052342;28;20017;-70
2023/10/16 02:17:49;;;;;;;7.57;4.03;;;;;;;;;;5052041;28;20064;-69
2023/10/16 02:20:16;;;;;;;16.65;3.72;;;;;;;;;;5040402;28;20275;-69
2023/10/16 02:22:41;;;;;;;13.00;3.83;;;;;;;;;;5049486;28;20029;-69
2023/10/16 02:25:11;;;;;;;10.73;3.95;;;;;;;;;;5046432;28;20074;-69
2023/10/16 02:27:36;;;;;;;11.15;3.75;;;;;;;;;;5044813;28;20022;-69
2023/10/16 02:33:12;;;;;;;9.20;3.90;;;;;;;;;;5028452;28;20094;-69
2023/10/16 02:35:37;;;;;;;8.07;3.75;;;;;;;;;;5044295;28;20021;-69
2023/10/16 02:38:02;;;;;;;8.65;4.25;;;;;;;;;;5037147;28;20013;-69
2023/10/16 02:40:32;;;;;;;11.95;4.30;;;;;;;;;;5052028;28;20481;-69
2023/10/16 02:43:01;;;;;;;12.80;3.80;;;;;;;;;;5051392;28;20017;-69
2023/10/16 02:45:26;;;;;;;9.55;3.55;;;;;;;;;;5051568;28;20090;-69
2023/10/16 02:47:52;;;;;;;9.73;3.72;;;;;;;;;;5051801;28;20017;-69
2023/10/16 02:50:18;;;;;;;8.45;4.22;;;;;;;;;;5040008;28;20021;-69
2023/10/16 02:52:45;;;;;;;8.73;4.30;;;;;;;;;;5042654;28;20493;-69
2023/10/16 02:55:11;;;;;;;18.38;4.63;;;;;;;;;;5047869;28;20052;-70
2023/10/16 02:57:36;;;;;;;16.25;4.30;;;;;;;;;;5036077;28;20053;-70
2023/10/16 03:00:06;;;;;;;8.30;3.78;;;;;;;;;;5044508;28;20017;-69
2023/10/16 03:02:33;;;;;;;8.43;3.60;;;;;;;;;;5051356;28;20029;-69
2023/10/16 03:05:10;;;;;;;16.38;4.70;;;;;;;;;;5050826;28;20108;-70
2023/10/16 03:07:36;;;;;;;23.00;4.30;;;;;;;;;;5051583;28;20021;-69
2023/10/16 03:10:01;;;;;;;11.43;4.03;;;;;;;;;;5049424;28;20108;-69
2023/10/16 03:12:27;;;;;;;7.50;4.20;;;;;;;;;;5045426;28;20832;-70
2023/10/16 03:14:57;;;;;;;9.32;4.75;;;;;;;;;;5035401;28;20042;-69
2023/10/16 03:17:25;;;;;;;9.95;4.65;;;;;;;;;;5051537;28;20033;-69
2023/10/16 03:19:51;;;;;;;10.15;4.63;;;;;;;;;;5051725;28;20033;-69
2023/10/16 03:22:16;;;;;;;9.70;5.03;;;;;;;;;;5051261;28;20024;-69
2023/10/16 03:24:43;;;;;;;10.15;4.60;;;;;;;;;;5050523;28;20033;-69
2023/10/16 03:27:08;;;;;;;11.13;4.82;;;;;;;;;;5046925;28;20481;-69
2023/10/16 03:29:34;;;;;;;10.20;4.30;;;;;;;;;;5033831;28;20025;-69
2023/10/16 03:31:59;;;;;;;9.65;4.88;;;;;;;;;;5050269;28;20017;-70
2023/10/16 03:34:25;;;;;;;11.30;5.07;;;;;;;;;;5050530;28;20037;-69
2023/10/16 03:36:54;;;;;;;12.20;4.73;;;;;;;;;;5049704;28;20279;-69
2023/10/16 03:39:19;;;;;;;12.95;5.13;;;;;;;;;;5050462;28;20325;-71
2023/10/16 03:41:45;;;;;;;10.23;4.85;;;;;;;;;;5045275;28;20021;-71
2023/10/16 03:44:18;;;;;;;15.82;4.72;;;;;;;;;;5048092;28;20021;-72
2023/10/16 03:46:44;;;;;;;12.45;4.68;;;;;;;;;;5049838;28;20009;-69
2023/10/16 03:49:09;;;;;;;9.55;4.35;;;;;;;;;;5049678;28;20016;-69
2023/10/16 03:51:34;;;;;;;13.68;5.10;;;;;;;;;;5030052;28;20389;-68
2023/10/16 03:54:02;;;;;;;10.98;4.88;;;;;;;;;;5043664;28;20488;-69
2023/10/16 03:56:30;;;;;;;16.75;5.57;;;;;;;;;;5048257;28;20009;-69
2023/10/16 03:58:55;;;;;;;10.55;5.97;;;;;;;;;;5050502;28;20028;-69
2023/10/16 04:01:39;;;;;;;10.32;4.97;;;;;;;;;;5050203;28;20033;-69
2023/10/16 04:04:12;;;;;;;8.63;4.82;;;;;;;;;;5048057;28;20017;-69
2023/10/16 04:06:39;;;;;;;17.73;5.20;;;;;;;;;;5034879;28;20517;-69
2023/10/16 04:09:05;;;;;;;13.15;5.25;;;;;;;;;;5050516;28;20056;-69
2023/10/16 04:11:32;;;;;;;13.57;5.78;;;;;;;;;;5050196;28;20059;-69
2023/10/16 04:13:58;;;;;;;15.10;5.68;;;;;;;;;;5049117;28;20458;-69
2023/10/16 04:21:45;;;;;;;9.82;4.80;;;;;;;;;;5039406;28;20105;-69
2023/10/16 04:26:57;;;;;;;14.43;5.32;;;;;;;;;;5050040;28;20485;-69
2023/10/16 04:29:25;;;;;;;13.48;5.28;;;;;;;;;;5049964;28;20036;-69
2023/10/16 04:34:31;;;;;;;11.55;5.30;;;;;;;;;;5041697;28;20163;-69
2023/10/16 05:19:44;;;;;;;13.43;6.68;;;;;;;;;;5049885;28;20111;-70
2023/10/16 06:14:09;;;;;;;15.75;7.20;;;;;;;;;;5053305;28;20017;-69
2023/10/16 06:14:15;;;;;;;13.10;6.75;;;;;;;;;;5052560;28;20106;-71
2023/10/16 06:16:40;;;;;;;15.00;6.50;;;;;;;;;;5051986;28;20028;-69
2023/10/16 06:19:15;;;;;;;16.73;7.05;;;;;;;;;;5049030;28;20033;-69
2023/10/16 06:21:47;;;;;;;14.98;6.70;;;;;;;;;;5045460;28;20026;-69
2023/10/16 06:24:25;;;;;;;17.77;7.28;;;;;;;;;;5043419;28;20404;-69
2023/10/16 06:26:51;;;;;;;14.93;7.00;;;;;;;;;;5045688;28;20079;-69
2023/10/16 06:29:16;;;;;;;9.95;5.95;;;;;;;;;;5049100;28;20532;-71
2023/10/16 06:31:49;;;;;;;11.63;5.95;;;;;;;;;;5043189;28;20040;-69
2023/10/16 06:34:15;;;;;;;12.85;6.20;;;;;;;;;;5044773;28;20104;-70
2023/10/16 06:36:41;;;;;;;17.30;6.88;;;;;;;;;;5051387;28;20043;-69
2023/10/16 06:39:19;;;;;;;15.25;6.25;;;;;;;;;;5050988;28;20032;-69
2023/10/16 06:41:45;;;;;;;13.55;6.53;;;;;;;;;;5046514;28;20385;-70
2023/10/16 06:44:15;;;;;;;14.35;6.50;;;;;;;;;;5042287;28;20025;-69
2023/10/16 06:46:41;;;;;;;15.45;7.07;;;;;;;;;;5039136;28;20009;-68
2023/10/16 06:49:08;;;;;;;15.33;6.50;;;;;;;;;;5046743;28;20676;-69
2023/10/16 06:51:33;;;;;;;14.82;7.15;;;;;;;;;;5051611;28;20754;-69
2023/10/16 06:54:01;;;;;;;19.98;8.05;;;;;;;;;;5050888;28;20029;-69
2023/10/16 06:56:34;;;;;;;23.00;8.27;;;;;;;;;;5043213;28;20009;-72
2023/10/16 06:58:59;;;;;;;21.75;6.40;;;;;;;;;;5050151;28;20021;-69
2023/10/16 07:01:25;;;;;;;25.17;9.18;;;;;;;;;;5051747;28;20032;-71
2023/10/16 07:03:51;;;;;;;26.05;9.60;;;;;;;;;;5044452;28;20104;-70
2023/10/16 07:06:16;;;;;;;26.77;9.60;;;;;;;;;;5042338;28;20541;-70
2023/10/16 07:08:41;;;;;;;24.52;8.82;;;;;;;;;;5051515;28;20108;-69
2023/10/16 07:11:11;;;;;;;27.50;11.32;;;;;;;;;;5051372;28;20009;-70
2023/10/16 07:13:38;;;;;;;34.10;10.25;;;;;;;;;;5051291;28;20028;-69
2023/10/16 07:16:04;;;;;;;27.33;8.65;;;;;;;;;;5050273;28;20009;-71
2023/10/16 07:18:33;;;;;;;27.48;9.48;;;;;;;;;;5038244;28;20045;-69
2023/10/16 07:20:59;;;;;;;28.42;10.40;;;;;;;;;;5038545;28;20493;-72
2023/10/16 07:23:29;;;;;;;19.25;8.63;;;;;;;;;;5037943;28;20038;-69
2023/10/16 07:25:54;;;;;;;;;;;;;;;;;;5033464;28;20389;-69
2023/10/16 07:28:20;;;;;;;24.85;10.15;;;;;;;;;;5031220;28;20412;-69
2023/10/16 07:30:45;;;;;;;38.85;9.60;;;;;;;;;;5031327;28;20036;-71
2023/10/16 07:33:17;;;;;;;25.50;8.70;;;;;;;;;;5034873;28;20053;-69
2023/10/16 07:35:44;;;;;;;23.17;8.23;;;;;;;;;;5039093;28;20046;-69
2023/10/16 07:38:10;;;;;;;27.05;10.13;;;;;;;;;;5041485;28;20013;-70
2023/10/16 07:40:37;;;;;;;32.22;9.68;;;;;;;;;;5042509;28;20024;-69
2023/10/16 07:43:03;;;;;;;23.02;8.82;;;;;;;;;;5033115;28;20017;-70
2023/10/16 07:45:32;;;;;;;24.15;10.60;;;;;;;;;;5039490;28;20629;-69
2023/10/16 07:48:07;;;;;;;32.00;10.55;;;;;;;;;;5039289;28;20103;-70
2023/10/16 07:50:32;;;;;;;31.75;12.10;;;;;;;;;;5039850;28;20013;-69
2023/10/16 07:52:57;;;;;;;36.58;10.90;;;;;;;;;;5043259;28;20021;-70
2023/10/16 07:55:38;;;;;;;27.83;11.00;;;;;;;;;;5045522;28;20017;-72
2023/10/16 07:58:11;;;;;;;41.03;10.95;;;;;;;;;;5042362;28;20042;-70
2023/10/16 08:00:42;;;;;;;39.13;12.07;;;;;;;;;;5038648;28;20772;-69
2023/10/16 08:03:13;;;;;;;35.58;11.48;;;;;;;;;;5040805;28;20028;-71
2023/10/16 08:05:38;;;;;;;34.17;11.38;;;;;;;;;;5040541;28;20020;-69
2023/10/16 08:08:11;;;;;;;33.63;9.82;;;;;;;;;;5037241;28;20466;-70
2023/10/16 08:10:43;;;;;;;31.60;11.90;;;;;;;;;;5044479;28;20087;-69
2023/10/16 08:13:11;;;;;;;32.97;11.68;;;;;;;;;;5037598;28;20386;-70
2023/10/16 08:15:37;;;;;;;35.70;12.77;;;;;;;;;;5038420;28;20022;-70
2023/10/16 08:18:07;;;;;;;29.42;11.07;;;;;;;;;;5030138;28;20026;-69
2023/10/16 08:20:49;;;;;;;29.13;10.52;;;;;;;;;;5030387;28;20009;-70
2023/10/16 08:23:14;;;;;;;32.13;10.77;;;;;;;;;;5035442;28;20505;-69
2023/10/16 08:25:40;;;;;;;28.17;11.60;;;;;;;;;;5034140;28;20034;-70
2023/10/16 08:28:24;;;;;;;32.10;11.90;;;;;;;;;;5041694;28;20049;-70
2023/10/16 08:30:52;;;;;;;24.67;9.95;;;;;;;;;;5040145;28;20444;-70
2023/10/16 08:33:17;;;;;;;22.98;10.00;;;;;;;;;;5037948;28;20013;-69
2023/10/16 08:35:43;;;;;;;29.08;11.88;;;;;;;;;;5029871;28;20061;-69
2023/10/16 08:38:20;;;;;;;24.60;11.15;;;;;;;;;;5029972;28;20022;-69
2023/10/16 08:40:57;;;;;;;27.55;10.40;;;;;;;;;;5032375;28;20158;-72
2023/10/16 08:43:31;;;;;;;37.90;14.25;;;;;;;;;;5038761;28;20063;-69
2023/10/16 08:45:56;;;;;;;20.15;5.60;;;;;;;;;;5031752;28;20017;-69
2023/10/16 08:48:22;;;;;;;25.50;10.45;;;;;;;;;;5030016;28;20371;-69
2023/10/16 08:50:58;;;;;;;35.75;11.35;;;;;;;;;;5030119;28;20013;-68
2023/10/16 08:53:32;;;;;;;13.80;5.47;;;;;;;;;;5034991;28;20077;-69
2023/10/16 08:55:58;;;;;;;12.48;6.55;;;;;;;;;;5043052;28;20019;-69
2023/10/16 08:58:23;;;;;;;13.88;6.25;;;;;;;;;;5037908;28;20018;-69
2023/10/16 09:00:49;;;;;;;17.25;6.05;;;;;;;;;;5029836;28;20029;-70
2023/10/16 09:03:16;;;;;;;34.63;12.52;;;;;;;;;;5029564;28;20067;-69
2023/10/16 09:05:43;;;;;;;32.63;11.10;;;;;;;;;;5029489;28;20026;-70
2023/10/16 09:08:14;;;;;;;35.63;10.93;;;;;;;;;;5029532;28;20014;-70
2023/10/16 09:10:40;;;;;;;10.00;5.28;;;;;;;;;;5037305;28;20045;-71
2023/10/16 09:13:15;;;;;;;20.05;7.68;;;;;;;;;;5038022;28;20013;-71
2023/10/16 09:15:47;;;;;;;41.72;14.30;;;;;;;;;;5029600;28;20018;-73
2023/10/16 09:18:15;;;;;;;34.95;12.70;;;;;;;;;;5033261;28;20025;-70
2023/10/16 09:20:41;;;;;;;28.15;10.85;;;;;;;;;;5049741;28;20017;-70
2023/10/16 09:23:07;;;;;;;37.40;12.57;;;;;;;;;;5048460;28;20111;-70
2023/10/16 09:25:33;;;;;;;10.93;5.30;;;;;;;;;;5037984;28;20485;-71
2023/10/16 09:27:59;;;;;;;12.60;5.55;;;;;;;;;;5038238;28;20031;-71
2023/10/16 09:30:28;;;;;;;25.63;10.00;;;;;;;;;;5038404;28;20017;-71
2023/10/16 09:32:54;;;;;;;23.52;8.48;;;;;;;;;;5049150;28;20024;-70
2023/10/16 09:35:30;;;;;;;13.48;5.45;;;;;;;;;;5049310;28;20021;-70
2023/10/16 09:38:09;;;;;;;35.42;12.63;;;;;;;;;;5049294;28;20083;-70
2023/10/16 09:40:37;;;;;;;33.25;11.63;;;;;;;;;;5049302;28;20021;-70
2023/10/16 09:43:12;;;;;;;33.00;12.38;;;;;;;;;;5041767;28;20017;-70
2023/10/16 09:45:38;;;;;;;33.95;13.50;;;;;;;;;;5046835;28;20186;-70
2023/10/16 09:48:08;;;;;;;33.35;12.77;;;;;;;;;;5050855;28;20096;-71
2023/10/16 09:50:33;;;;;;;37.22;14.73;;;;;;;;;;5039971;28;20466;-70
2023/10/16 09:53:01;;;;;;;32.22;11.82;;;;;;;;;;5052631;28;20099;-70
2023/10/16 09:55:27;;;;;;;29.45;12.73;;;;;;;;;;5051872;28;20013;-71
2023/10/16 09:57:54;;;;;;;29.55;10.90;;;;;;;;;;5044145;28;20028;-70
2023/10/16 10:00:30;;;;;;;40.13;15.35;;;;;;;;;;5041109;28;20136;-71
2023/10/16 10:03:05;;;;;;;21.00;6.15;;;;;;;;;;5026642;28;20018;-70
2023/10/16 10:05:48;;;;;;;30.40;13.02;;;;;;;;;;5052557;28;20400;-71
2023/10/16 10:08:38;;;;;;;27.83;11.80;;;;;;;;;;5044999;28;20070;-71
2023/10/16 10:11:17;;;;;;;19.25;7.95;;;;;;;;;;5041569;28;20020;-71
2023/10/16 10:14:09;;;;;;;45.53;16.25;;;;;;;;;;5036760;28;20018;-71
2023/10/16 10:16:35;;;;;;;36.17;14.38;;;;;;;;;;5039289;28;20032;-71
2023/10/16 10:19:04;;;;;;;27.75;11.13;;;;;;;;;;5052283;28;20029;-72
2023/10/16 10:21:44;;;;;;;20.15;5.88;;;;;;;;;;5050003;28;20020;-72
2023/10/16 10:24:15;;;;;;;42.88;16.38;;;;;;;;;;5043478;28;20024;-72
2023/10/16 10:26:40;;;;;;;44.67;16.23;;;;;;;;;;5048720;28;20505;-72
2023/10/16 10:29:09;;;;;;;35.92;15.02;;;;;;;;;;5044276;28;20062;-71
2023/10/16 10:31:36;;;;;;;47.05;18.17;;;;;;;;;;5045846;28;20104;-72
2023/10/16 10:34:15;;;;;;;44.25;18.40;;;;;;;;;;5034852;28;20437;-71
2023/10/16 10:36:43;;;;;;;40.70;15.80;;;;;;;;;;5044668;28;20100;-72
2023/10/16 10:39:21;;;;;;;26.67;9.98;;;;;;;;;;5049555;28;20283;-72
2023/10/16 10:41:51;;;;;;;38.15;14.30;;;;;;;;;;5049185;28;20477;-72
2023/10/16 10:44:18;;;;;;;47.45;18.13;;;;;;;;;;5044099;28;20064;-72
2023/10/16 10:46:49;;;;;;;40.55;15.98;;;;;;;;;;5044484;28;20500;-72
2023/10/16 10:49:15;;;;;;;19.90;7.07;;;;;;;;;;5051869;28;20478;-71
2023/10/16 10:51:44;;;;;;;28.85;8.88;;;;;;;;;;5042612;28;20029;-71
2023/10/16 10:54:12;;;;;;;17.80;9.52;;;;;;;;;;5050655;28;20726;-72
2023/10/16 10:56:41;;;;;;;45.42;19.25;;;;;;;;;;5047436;28;20104;-71
2023/10/16 10:59:10;;;;;;;46.65;18.50;;;;;;;;;;5042629;28;20013;-71
2023/10/16 11:01:37;;;;;;;28.77;12.93;;;;;;;;;;5037792;28;20101;-72
2023/10/16 11:04:09;;;;;;;36.97;14.90;;;;;;;;;;5050281;28;20320;-72
2023/10/16 11:06:49;;;;;;;28.70;10.63;;;;;;;;;;5037833;28;20420;-72
2023/10/16 11:09:18;;;;;;;35.22;13.68;;;;;;;;;;5040208;28;20107;-72
2023/10/16 11:11:44;;;;;;;50.03;18.80;;;;;;;;;;5047236;28;20025;-72
2023/10/16 11:14:12;;;;;;;45.05;15.68;;;;;;;;;;5044440;28;20029;-72
2023/10/16 11:16:41;;;;;;;27.23;11.00;;;;;;;;;;5040420;28;20079;-72
2023/10/16 11:19:08;;;;;;;35.92;15.32;;;;;;;;;;5034618;28;20506;-72
2023/10/16 11:21:36;;;;;;;48.63;16.15;;;;;;;;;;5024052;28;20021;-71
2023/10/16 11:24:05;;;;;;;40.10;16.77;;;;;;;;;;5023873;28;20018;-71
2023/10/16 11:26:32;;;;;;;22.77;7.53;;;;;;;;;;5030151;28;20025;-71
2023/10/16 11:29:00;;;;;;;23.77;9.05;;;;;;;;;;5025530;28;20049;-71
2023/10/16 11:31:25;;;;;;;43.28;16.30;;;;;;;;;;5025464;28;20018;-71
2023/10/16 11:34:01;;;;;;;26.63;9.85;;;;;;;;;;5023923;28;20067;-71
2023/10/16 11:36:28;;;;;;;34.47;12.88;;;;;;;;;;5025382;28;20492;-72
2023/10/16 11:38:57;;;;;;;27.75;9.65;;;;;;;;;;5023476;28;20022;-72
2023/10/16 11:41:24;;;;;;;35.23;13.93;;;;;;;;;;5016126;28;20036;-72
2023/10/16 11:43:53;;;;;;;34.95;12.90;;;;;;;;;;5017410;28;20018;-72
2023/10/16 11:46:44;;;;;;;38.38;16.45;;;;;;;;;;5012634;28;20040;-72
2023/10/16 11:49:22;;;;;;;36.88;15.82;;;;;;;;;;5022048;28;20100;-71
2023/10/16 11:51:48;;;;;;;27.35;9.35;;;;;;;;;;5023309;28;20354;-72
2023/10/16 11:54:22;;;;;;;17.17;5.93;;;;;;;;;;5027429;28;20020;-72
2023/10/16 11:56:50;;;;;;;28.23;11.35;;;;;;;;;;5015944;28;20535;-72
2023/10/16 11:59:19;;;;;;;36.22;12.02;;;;;;;;;;5030792;28;20014;-72
2023/10/16 12:01:44;;;;;;;35.85;15.45;;;;;;;;;;5023311;28;20087;-72
2023/10/16 12:04:10;;;;;;;27.87;12.17;;;;;;;;;;5020452;28;20121;-71
2023/10/16 12:06:35;;;;;;;31.65;13.05;;;;;;;;;;5018100;28;20260;-71
2023/10/16 12:09:00;;;;;;;26.45;11.73;;;;;;;;;;5021551;28;20029;-71
2023/10/16 12:11:25;;;;;;;27.77;12.57;;;;;;;;;;5021818;28;20021;-71
2023/10/16 12:13:51;;;;;;;14.25;6.13;;;;;;;;;;5015548;28;20032;-72
2023/10/16 12:16:22;;;;;;;20.05;8.10;;;;;;;;;;5022858;28;20462;-72
2023/10/16 12:18:47;;;;;;;31.40;11.45;;;;;;;;;;5035918;28;20033;-71
2023/10/16 12:21:16;;;;;;;16.33;7.95;;;;;;;;;;5042379;28;20017;-71
2023/10/16 12:23:42;;;;;;;23.85;10.32;;;;;;;;;;5049298;28;20033;-71
2023/10/16 12:26:07;;;;;;;25.95;11.73;;;;;;;;;;5048921;28;20025;-71
2023/10/16 12:28:32;;;;;;;30.67;9.43;;;;;;;;;;5038505;28;20021;-71
2023/10/16 12:30:58;;;;;;;15.82;7.03;;;;;;;;;;5042972;28;20091;-71
2023/10/16 12:33:26;;;;;;;21.30;10.07;;;;;;;;;;5042427;28;20382;-72
2023/10/16 12:35:54;;;;;;;11.18;6.07;;;;;;;;;;5042648;28;20032;-72
2023/10/16 12:38:20;;;;;;;28.45;10.70;;;;;;;;;;5035649;28;20017;-71
2023/10/16 12:40:45;;;;;;;23.88;10.52;;;;;;;;;;5048567;28;20029;-72
2023/10/16 12:43:10;;;;;;;23.60;9.20;;;;;;;;;;5044235;28;20025;-72
2023/10/16 12:45:39;;;;;;;22.77;8.07;;;;;;;;;;5041041;28;20267;-72
2023/10/16 12:48:04;;;;;;;21.52;9.60;;;;;;;;;;5039006;28;20671;-72
2023/10/16 12:50:30;;;;;;;24.85;10.30;;;;;;;;;;5044429;28;20021;-72
2023/10/16 12:52:56;;;;;;;24.83;9.27;;;;;;;;;;5049687;28;20029;-72
2023/10/16 12:55:22;;;;;;;28.05;9.32;;;;;;;;;;5034243;28;20268;-72
2023/10/16 12:57:48;;;;;;;21.52;9.55;;;;;;;;;;5049292;28;20017;-73
2023/10/16 13:00:16;;;;;;;21.73;9.43;;;;;;;;;;5047124;28;20112;-72
2023/10/16 13:02:45;;;;;;;15.30;4.80;;;;;;;;;;5038380;28;20032;-72
2023/10/16 13:05:14;;;;;;;24.65;7.75;;;;;;;;;;5039522;28;20580;-70
2023/10/16 13:07:41;;;;;;;15.32;7.50;;;;;;;;;;5045376;28;20021;-71
2023/10/16 13:10:08;;;;;;;18.73;7.63;;;;;;;;;;5042312;28;20009;-71
2023/10/16 13:12:33;;;;;;;18.65;7.20;;;;;;;;;;5046749;28;20048;-71
2023/10/16 13:15:00;;;;;;;23.63;8.52;;;;;;;;;;5041496;28;20049;-72
2023/10/16 13:17:25;;;;;;;17.27;7.55;;;;;;;;;;5040974;28;20028;-72
2023/10/16 13:19:50;;;;;;;22.55;8.50;;;;;;;;;;5019461;28;20029;-72
2023/10/16 13:22:17;;;;;;;17.65;7.93;;;;;;;;;;5033545;28;20025;-71
2023/10/16 13:24:42;;;;;;;16.33;7.38;;;;;;;;;;5027386;28;20013;-72
2023/10/16 13:27:08;;;;;;;18.33;7.25;;;;;;;;;;5026785;28;20377;-72
2023/10/16 13:29:37;;;;;;;14.52;6.78;;;;;;;;;;5019576;28;20052;-71
2023/10/16 13:32:03;;;;;;;20.52;7.03;;;;;;;;;;5023229;28;20009;-72
2023/10/16 13:34:28;;;;;;;14.77;7.43;;;;;;;;;;5024292;28;20014;-72
2023/10/16 13:37:00;;;;;;;17.67;7.43;;;;;;;;;;5025593;28;20764;-72
2023/10/16 13:39:25;;;;;;;15.52;7.10;;;;;;;;;;5021791;28;20303;-71
2023/10/16 13:41:51;;;;;;;18.92;7.50;;;;;;;;;;5027678;28;20481;-72
2023/10/16 13:44:19;;;;;;;16.75;7.68;;;;;;;;;;5029362;28;20049;-72
2023/10/16 13:46:44;;;;;;;15.63;6.90;;;;;;;;;;5025348;28;20108;-71
2023/10/16 13:49:14;;;;;;;20.20;8.82;;;;;;;;;;5026157;28;20125;-72
2023/10/16 13:51:39;;;;;;;17.27;8.02;;;;;;;;;;5026031;28;20022;-72
2023/10/16 13:54:11;;;;;;;20.15;8.85;;;;;;;;;;5032947;28;20023;-71
2023/10/16 13:56:36;;;;;;;19.13;7.50;;;;;;;;;;5032215;28;20032;-72
2023/10/16 13:59:03;;;;;;;15.73;7.60;;;;;;;;;;5032236;28;20021;-72
2023/10/16 14:01:30;;;;;;;14.15;7.03;;;;;;;;;;5025741;28;20022;-72
2023/10/16 14:03:58;;;;;;;18.92;8.20;;;;;;;;;;5023756;28;20025;-72
2023/10/16 14:06:24;;;;;;;16.92;7.00;;;;;;;;;;5015289;28;20073;-72
2023/10/16 14:08:49;;;;;;;17.70;6.93;;;;;;;;;;5021968;28;20184;-72
2023/10/16 14:11:15;;;;;;;14.00;6.32;;;;;;;;;;5024878;28;20097;-72
2023/10/16 14:13:40;;;;;;;16.15;7.43;;;;;;;;;;5032929;28;20297;-71
2023/10/16 14:16:11;;;;;;;19.83;7.07;;;;;;;;;;5028990;28;20109;-72
2023/10/16 14:18:44;;;;;;;16.15;6.82;;;;;;;;;;5013349;28;20034;-72
2023/10/16 14:21:13;;;;;;;14.57;6.65;;;;;;;;;;5029918;28;20102;-71
2023/10/16 14:23:39;;;;;;;16.50;6.93;;;;;;;;;;5032591;28;20024;-72
2023/10/16 14:26:10;;;;;;;15.40;7.35;;;;;;;;;;5028418;28;20025;-71
2023/10/16 14:28:46;;;;;;;18.67;7.53;;;;;;;;;;5028170;28;20057;-72
2023/10/16 14:31:14;;;;;;;11.98;6.22;;;;;;;;;;5025089;28;20021;-72
2023/10/16 14:33:41;;;;;;;16.45;6.25;;;;;;;;;;5024318;28;20145;-71
2023/10/16 14:36:09;;;;;;;12.73;5.85;;;;;;;;;;5025531;28;20493;-71
2023/10/16 14:38:35;;;;;;;17.20;6.57;;;;;;;;;;5032194;28;20061;-72
2023/10/16 14:41:08;;;;;;;15.52;6.45;;;;;;;;;;5031858;28;20702;-72
2023/10/16 14:43:35;;;;;;;13.05;6.47;;;;;;;;;;5024730;28;20087;-71
2023/10/16 14:46:02;;;;;;;17.58;7.28;;;;;;;;;;5019037;28;20030;-72
2023/10/16 14:48:27;;;;;;;18.40;7.50;;;;;;;;;;5025139;28;20022;-71
2023/10/16 14:50:52;;;;;;;12.02;5.90;;;;;;;;;;5028759;28;20048;-71
2023/10/16 14:53:19;;;;;;;16.67;6.40;;;;;;;;;;5024307;28;20021;-72
2023/10/16 14:55:47;;;;;;;12.95;6.10;;;;;;;;;;5024907;28;20021;-71
2023/10/16 14:58:13;;;;;;;14.57;6.50;;;;;;;;;;5025334;28;20112;-72
2023/10/16 15:00:42;;;;;;;16.08;6.53;;;;;;;;;;5024359;28;20104;-72
2023/10/16 15:03:10;;;;;;;12.73;6.07;;;;;;;;;;5018889;28;20040;-72
2023/10/16 15:05:36;;;;;;;18.92;5.82;;;;;;;;;;5025043;28;20547;-72
2023/10/16 15:08:04;;;;;;;15.82;6.50;;;;;;;;;;5016393;28;20025;-72
2023/10/16 15:10:29;;;;;;;16.63;6.20;;;;;;;;;;5019340;28;20024;-71
2023/10/16 15:12:55;;;;;;;14.83;7.37;;;;;;;;;;5029789;28;20013;-72
2023/10/16 15:15:20;;;;;;;11.88;6.15;;;;;;;;;;5021711;28;20668;-72
2023/10/16 15:17:46;;;;;;;17.63;6.75;;;;;;;;;;5023085;28;20028;-71
2023/10/16 15:20:14;;;;;;;20.00;7.47;;;;;;;;;;5043368;28;20060;-71
2023/10/16 15:22:44;;;;;;;18.77;7.03;;;;;;;;;;5038886;28;20025;-72
2023/10/16 15:25:12;;;;;;;18.13;7.10;;;;;;;;;;5038367;28;20020;-72
2023/10/16 15:27:38;;;;;;;19.60;7.80;;;;;;;;;;5043716;28;20036;-72
2023/10/16 15:30:06;;;;;;;12.52;6.40;;;;;;;;;;5040188;28;20013;-72
2023/10/16 15:32:31;;;;;;;14.23;6.15;;;;;;;;;;5039517;28;20029;-72
2023/10/16 15:34:56;;;;;;;12.37;6.07;;;;;;;;;;5046820;28;20021;-71
2023/10/16 15:37:21;;;;;;;15.10;6.33;;;;;;;;;;5051340;28;20306;-72
2023/10/16 15:39:50;;;;;;;14.47;5.67;;;;;;;;;;5051050;28;20506;-72
2023/10/16 15:42:16;;;;;;;12.32;6.53;;;;;;;;;;5041089;28;20334;-72
2023/10/16 15:44:41;;;;;;;12.80;5.93;;;;;;;;;;5046426;28;20174;-72
2023/10/16 15:47:07;;;;;;;20.08;6.65;;;;;;;;;;5044844;28;20005;-72
2023/10/16 15:49:32;;;;;;;14.88;6.22;;;;;;;;;;5045244;28;20489;-72
2023/10/16 15:51:57;;;;;;;13.75;6.80;;;;;;;;;;5044804;28;20010;-72
2023/10/16 15:54:22;;;;;;;17.37;6.97;;;;;;;;;;5045292;28;20105;-72
2023/10/16 15:56:48;;;;;;;16.07;6.63;;;;;;;;;;5045731;28;20744;-72
2023/10/16 15:59:13;;;;;;;15.32;6.63;;;;;;;;;;5039065;28;20340;-72
2023/10/16 16:01:39;;;;;;;17.10;7.05;;;;;;;;;;5045233;28;20111;-72
2023/10/16 16:04:05;;;;;;;13.17;6.03;;;;;;;;;;5043311;28;20453;-72
2023/10/16 16:06:32;;;;;;;17.00;7.53;;;;;;;;;;5043968;28;20255;-72
2023/10/16 16:08:59;;;;;;;14.70;6.82;;;;;;;;;;5047543;28;20435;-72
2023/10/16 16:11:27;;;;;;;16.48;6.88;;;;;;;;;;5044270;28;20033;-72
2023/10/16 16:13:52;;;;;;;15.02;6.93;;;;;;;;;;5043790;28;20029;-72
2023/10/16 16:16:20;;;;;;;16.02;6.80;;;;;;;;;;5046583;28;20023;-72
2023/10/16 16:18:45;;;;;;;17.63;7.30;;;;;;;;;;5028980;28;20033;-72
2023/10/16 16:21:13;;;;;;;16.83;6.75;;;;;;;;;;5022779;28;20021;-74
2023/10/16 16:23:39;;;;;;;15.70;7.60;;;;;;;;;;5025608;28;20421;-72